Time;durP1;ratioP1;P1;durP2;ratioP2;P2;SDS_P1;SDS_P2;PMS_P1;PMS_P2;Temp;Humidity;BMP_temperature;BMP_pressure;BME280_temperature;BME280_humidity;BME280_pressure;Samples;Min_cycle;Max_cycle;Signal;HPM_P1;HPM_P2
2023/10/08 00:01:21;;;;;;;0.47;0.40;;;13.50;99.90;;;;;;5090008;28;20465;-56
2023/10/08 00:03:52;;;;;;;0.68;0.40;;;13.40;99.90;;;;;;5089673;28;20167;-55
2023/10/08 00:06:20;;;;;;;4.00;0.45;;;13.40;99.90;;;;;;5088479;28;20462;-56
2023/10/08 00:08:47;;;;;;;1.83;0.30;;;13.40;99.90;;;;;;5091047;28;20043;-56
2023/10/08 00:11:15;;;;;;;3.15;0.50;;;13.40;99.90;;;;;;5082386;28;20560;-55
2023/10/08 00:13:42;;;;;;;0.30;0.30;;;13.30;99.90;;;;;;5088391;28;20047;-56
2023/10/08 00:16:10;;;;;;;1.75;0.50;;;13.30;99.90;;;;;;5085689;28;20537;-56
2023/10/08 00:18:48;;;;;;;2.50;0.43;;;13.40;99.90;;;;;;5086221;28;20819;-55
2023/10/08 00:21:19;;;;;;;2.17;0.43;;;13.30;99.90;;;;;;5086626;28;20080;-55
2023/10/08 00:23:52;;;;;;;1.10;0.47;;;13.40;99.90;;;;;;5083948;28;20050;-55
2023/10/08 00:26:27;;;;;;;1.17;0.70;;;13.40;99.90;;;;;;5089179;28;20047;-57
2023/10/08 00:28:55;;;;;;;0.95;0.60;;;13.40;99.90;;;;;;5087740;28;20711;-56
2023/10/08 00:31:24;;;;;;;2.22;0.73;;;13.40;99.90;;;;;;5088287;28;20368;-55
2023/10/08 00:33:49;;;;;;;1.10;0.50;;;13.40;99.90;;;;;;5090272;28;20044;-55
2023/10/08 00:36:19;;;;;;;4.30;0.80;;;13.40;99.90;;;;;;5073865;28;20568;-55
2023/10/08 00:38:58;;;;;;;4.30;0.68;;;13.40;99.90;;;;;;5086664;28;20058;-56
2023/10/08 00:41:28;;;;;;;8.10;0.98;;;13.40;99.90;;;;;;5088888;28;20043;-56
2023/10/08 00:43:59;;;;;;;1.88;0.60;;;13.40;99.90;;;;;;5088510;28;20150;-57
2023/10/08 00:46:32;;;;;;;3.13;0.60;;;13.40;99.90;;;;;;5068111;28;20089;-56
2023/10/08 00:51:45;;;;;;;4.00;0.60;;;13.40;99.90;;;;;;5089220;28;20036;-57
2023/10/08 00:54:17;;;;;;;4.57;0.88;;;13.40;99.90;;;;;;5063873;28;20063;-56
2023/10/08 00:56:53;;;;;;;6.00;0.60;;;13.40;99.90;;;;;;5067512;28;20736;-56
2023/10/08 00:59:23;;;;;;;3.40;0.80;;;13.40;99.90;;;;;;5083805;28;20040;-55
2023/10/08 01:01:58;;;;;;;0.75;0.57;;;13.30;99.90;;;;;;5084500;28;20078;-56
2023/10/08 01:04:27;;;;;;;5.25;0.80;;;13.30;99.90;;;;;;5084414;28;20553;-56
2023/10/08 01:07:15;;;;;;;5.30;1.60;;;13.40;99.90;;;;;;5072100;28;20036;-55
2023/10/08 01:09:50;;;;;;;2.03;0.80;;;13.40;99.90;;;;;;5089336;28;20084;-55
2023/10/08 01:12:27;;;;;;;4.75;1.52;;;13.40;99.90;;;;;;5089609;28;20039;-55
2023/10/08 01:14:54;;;;;;;2.63;1.17;;;13.40;99.90;;;;;;5093851;28;20402;-55
2023/10/08 01:17:24;;;;;;;4.82;0.98;;;13.40;99.90;;;;;;5092012;28;20571;-55
2023/10/08 01:19:55;;;;;;;3.60;1.20;;;13.30;99.90;;;;;;5093803;28;20036;-54
2023/10/08 01:22:22;;;;;;;6.80;1.60;;;13.30;99.90;;;;;;5072828;28;20054;-54
2023/10/08 01:24:51;;;;;;;4.95;1.42;;;13.30;99.90;;;;;;5092639;28;20131;-56
2023/10/08 01:27:23;;;;;;;4.53;1.15;;;13.30;99.90;;;;;;5090723;28;20054;-55
2023/10/08 01:29:53;;;;;;;3.92;1.27;;;13.30;99.90;;;;;;5091680;28;20118;-57
2023/10/08 01:32:20;;;;;;;5.40;0.98;;;13.30;99.90;;;;;;5092749;28;20050;-56
2023/10/08 01:34:46;;;;;;;4.45;1.50;;;13.30;99.90;;;;;;5097894;28;20069;-55
2023/10/08 01:37:17;;;;;;;4.78;1.45;;;13.30;99.90;;;;;;5099238;28;20482;-55
2023/10/08 01:39:48;;;;;;;3.65;0.85;;;13.30;99.90;;;;;;5094816;28;20576;-56
2023/10/08 01:42:21;;;;;;;4.78;1.02;;;13.30;99.90;;;;;;5093887;28;20379;-57
2023/10/08 01:44:55;;;;;;;3.95;1.10;;;13.30;99.90;;;;;;5094649;28;20519;-55
2023/10/08 01:47:20;;;;;;;5.53;0.90;;;13.30;99.90;;;;;;5090090;28;20039;-55
2023/10/08 01:49:46;;;;;;;6.95;0.98;;;13.20;99.90;;;;;;5073526;28;20058;-54
2023/10/08 01:52:22;;;;;;;6.32;1.05;;;13.30;99.90;;;;;;5100744;28;20036;-55
2023/10/08 01:54:54;;;;;;;5.68;1.13;;;13.30;99.90;;;;;;5097788;28;20667;-55
2023/10/08 01:57:19;;;;;;;4.88;0.95;;;13.30;99.90;;;;;;5095317;28;20046;-56
2023/10/08 01:59:45;;;;;;;3.22;0.90;;;13.30;99.90;;;;;;5095437;28;20568;-55
2023/10/08 02:02:15;;;;;;;5.05;1.13;;;13.30;99.90;;;;;;5064245;28;20089;-56
2023/10/08 02:04:41;;;;;;;6.43;0.95;;;13.30;99.90;;;;;;5061846;28;20050;-54
2023/10/08 02:07:13;;;;;;;3.70;1.10;;;13.40;99.90;;;;;;5093133;28;20572;-56
2023/10/08 02:09:39;;;;;;;3.97;1.40;;;13.40;99.90;;;;;;5086162;28;20032;-55
2023/10/08 02:12:05;;;;;;;3.47;1.05;;;13.40;99.90;;;;;;5084615;28;20446;-55
2023/10/08 02:14:31;;;;;;;2.80;0.90;;;13.40;99.90;;;;;;5085929;28;20047;-57
2023/10/08 02:17:01;;;;;;;3.67;1.10;;;13.40;99.90;;;;;;5060805;28;20070;-57
2023/10/08 02:19:28;;;;;;;3.13;0.90;;;13.40;99.90;;;;;;5085104;28;20544;-56
2023/10/08 02:21:55;;;;;;;3.25;1.10;;;13.40;99.90;;;;;;5084373;28;20913;-56
2023/10/08 02:24:25;;;;;;;8.57;1.20;;;13.40;99.90;;;;;;5086137;28;20415;-56
2023/10/08 02:26:54;;;;;;;5.22;1.00;;;13.40;99.90;;;;;;5085829;28;21765;-56
2023/10/08 02:29:26;;;;;;;5.13;0.95;;;13.40;99.90;;;;;;5083441;28;20039;-52
2023/10/08 02:31:53;;;;;;;3.10;0.88;;;13.40;99.90;;;;;;5082677;28;20088;-56
2023/10/08 02:34:19;;;;;;;6.70;1.20;;;13.40;99.90;;;;;;5085011;28;20047;-56
2023/10/08 02:36:46;;;;;;;2.85;1.10;;;13.40;99.90;;;;;;5081807;28;20043;-54
2023/10/08 02:39:25;;;;;;;4.40;1.10;;;13.40;99.90;;;;;;5082389;28;20043;-57
2023/10/08 02:41:52;;;;;;;3.92;0.80;;;13.40;99.90;;;;;;5083089;28;21070;-55
2023/10/08 02:44:20;;;;;;;3.72;0.90;;;13.30;99.90;;;;;;5069845;28;20035;-55
2023/10/08 02:46:48;;;;;;;5.78;0.90;;;13.40;99.90;;;;;;5084279;28;20088;-56
2023/10/08 02:49:22;;;;;;;5.20;0.95;;;13.30;99.90;;;;;;5047097;28;20035;-56
2023/10/08 02:51:51;;;;;;;6.32;0.98;;;13.40;99.90;;;;;;5081341;28;20040;-57
2023/10/08 02:54:18;;;;;;;2.13;0.80;;;13.30;99.90;;;;;;5084531;28;20035;-57
2023/10/08 02:56:51;;;;;;;4.18;0.90;;;13.40;99.90;;;;;;5065366;28;20039;-57
2023/10/08 02:59:21;;;;;;;3.20;1.00;;;13.40;99.90;;;;;;5084541;28;20131;-57
2023/10/08 03:01:49;;;;;;;5.45;1.17;;;13.40;99.90;;;;;;5062395;28;20044;-55
2023/10/08 03:04:18;;;;;;;3.00;1.00;;;13.40;99.90;;;;;;5082853;28;20642;-56
2023/10/08 03:06:54;;;;;;;3.00;1.00;;;13.30;99.90;;;;;;5081962;28;20043;-56
2023/10/08 03:09:23;;;;;;;2.70;1.00;;;13.40;99.90;;;;;;5089175;28;20431;-57
2023/10/08 03:11:50;;;;;;;3.83;0.88;;;13.30;99.90;;;;;;5080811;28;20222;-55
2023/10/08 03:14:21;;;;;;;4.32;1.20;;;13.40;99.90;;;;;;5068071;28;20124;-57
2023/10/08 03:16:49;;;;;;;3.00;1.00;;;13.40;99.90;;;;;;5065607;28;20052;-56
2023/10/08 03:19:18;;;;;;;5.05;1.10;;;13.30;99.90;;;;;;5082227;28;20040;-55
2023/10/08 03:21:50;;;;;;;4.75;1.10;;;13.30;99.90;;;;;;5080613;28;20028;-56
2023/10/08 03:27:05;;;;;;;3.47;1.20;;;13.30;99.90;;;;;;5080113;28;20031;-56
2023/10/08 03:29:41;;;;;;;3.85;1.17;;;13.30;99.90;;;;;;5083647;28;20073;-57
2023/10/08 03:32:15;;;;;;;6.60;1.63;;;13.30;99.90;;;;;;5086050;28;21990;-56
2023/10/08 03:34:49;;;;;;;5.82;1.20;;;13.30;99.90;;;;;;5083398;28;20043;-55
2023/10/08 03:37:20;;;;;;;5.25;1.20;;;13.30;99.90;;;;;;5061662;28;20046;-55
2023/10/08 03:42:40;;;;;;;7.40;1.30;;;13.30;99.90;;;;;;5084731;28;20052;-56
2023/10/08 03:45:12;;;;;;;4.68;1.42;;;13.30;99.90;;;;;;5082380;28;20039;-55
2023/10/08 03:47:40;;;;;;;4.25;1.20;;;13.30;99.90;;;;;;5084230;28;20043;-57
2023/10/08 03:50:09;;;;;;;4.47;1.33;;;13.30;99.90;;;;;;5080795;28;20075;-57
2023/10/08 03:52:38;;;;;;;4.97;1.30;;;13.30;99.90;;;;;;5084265;28;20036;-57
2023/10/08 03:57:48;;;;;;;6.15;1.50;;;13.30;99.90;;;;;;5080785;28;20043;-56
2023/10/08 04:00:18;;;;;;;4.05;1.30;;;13.30;99.90;;;;;;5063817;28;20059;-56
2023/10/08 04:03:00;;;;;;;5.10;1.30;;;13.30;99.90;;;;;;5085799;28;20058;-55
2023/10/08 04:05:32;;;;;;;3.47;1.40;;;13.30;99.90;;;;;;5090477;28;20110;-56
2023/10/08 04:13:09;;;;;;;4.97;1.35;;;13.30;99.90;;;;;;5081732;28;20152;-55
2023/10/08 04:15:41;;;;;;;2.38;1.50;;;13.30;99.90;;;;;;5076527;28;20048;-56
2023/10/08 04:18:11;;;;;;;3.75;1.30;;;13.30;99.90;;;;;;5082908;28;20043;-55
2023/10/08 04:20:59;;;;;;;3.10;1.70;;;13.30;99.90;;;;;;5047096;28;20039;-56
2023/10/08 04:23:24;;;;;;;5.38;1.40;;;13.30;99.90;;;;;;5081678;28;20475;-57
2023/10/08 04:25:54;;;;;;;5.38;1.60;;;13.30;99.90;;;;;;5082615;28;20047;-57
2023/10/08 04:28:21;;;;;;;3.67;1.80;;;13.30;99.90;;;;;;5061181;28;20050;-55
2023/10/08 04:30:50;;;;;;;3.60;1.48;;;13.30;99.90;;;;;;5080323;28;20064;-55
2023/10/08 04:33:19;;;;;;;6.88;1.70;;;13.30;99.90;;;;;;5087631;28;20510;-56
2023/10/08 04:35:48;;;;;;;7.15;1.52;;;13.30;99.90;;;;;;5094311;28;20079;-56
2023/10/08 04:38:21;;;;;;;5.07;1.83;;;13.30;99.90;;;;;;5092250;28;20090;-55
2023/10/08 04:40:53;;;;;;;10.18;1.63;;;13.30;99.90;;;;;;5094133;28;20035;-57
2023/10/08 04:43:27;;;;;;;10.15;1.73;;;13.30;99.90;;;;;;5093159;28;20389;-55
2023/10/08 04:45:57;;;;;;;5.03;1.58;;;13.30;99.90;;;;;;5070159;28;20077;-57
2023/10/08 04:48:31;;;;;;;12.27;1.80;;;13.30;99.90;;;;;;5093923;28;20039;-56
2023/10/08 04:51:00;;;;;;;7.60;1.67;;;13.30;99.90;;;;;;5093771;28;20570;-55
2023/10/08 04:53:40;;;;;;;6.10;1.75;;;13.20;99.90;;;;;;5073831;28;20047;-56
2023/10/08 04:56:16;;;;;;;9.52;1.70;;;13.20;99.90;;;;;;5093811;28;20127;-56
2023/10/08 04:58:47;;;;;;;7.35;2.03;;;13.20;99.90;;;;;;5095837;28;20039;-56
2023/10/08 05:01:17;;;;;;;7.10;1.92;;;13.20;99.90;;;;;;5076058;28;20089;-54
2023/10/08 05:04:07;;;;;;;8.13;1.58;;;13.20;99.90;;;;;;5089806;28;20035;-55
2023/10/08 05:14:55;;;;;;;10.98;1.75;;;13.10;99.90;;;;;;5089152;28;20596;-56
2023/10/08 05:17:21;;;;;;;12.90;2.00;;;13.10;99.90;;;;;;5085252;28;20115;-56
2023/10/08 05:20:01;;;;;;;10.30;1.55;;;13.10;99.90;;;;;;5086565;28;20494;-57
2023/10/08 05:30:31;;;;;;;6.45;1.70;;;13.10;99.90;;;;;;5083259;28;20075;-57
2023/10/08 05:41:51;;;;;;;6.72;1.70;;;13.00;99.90;;;;;;5084868;28;20139;-57
2023/10/08 05:57:14;;;;;;;7.03;1.63;;;12.90;99.90;;;;;;5084978;28;20051;-56
2023/10/08 06:13:10;;;;;;;7.00;2.05;;;12.90;99.90;;;;;;5096347;28;20351;-55
2023/10/08 06:18:27;;;;;;;7.10;1.55;;;12.90;99.90;;;;;;5092631;28;20047;-55
2023/10/08 06:20:58;;;;;;;8.65;1.83;;;12.90;99.90;;;;;;5092327;28;20044;-55
2023/10/08 06:23:25;;;;;;;6.43;1.63;;;12.90;99.90;;;;;;5082623;28;20043;-55
2023/10/08 06:26:05;;;;;;;7.30;2.25;;;12.90;99.90;;;;;;5094473;28;20494;-55
2023/10/08 06:28:33;;;;;;;11.50;2.67;;;12.90;99.90;;;;;;5093303;28;20101;-55
2023/10/08 06:30:59;;;;;;;8.20;1.60;;;12.90;99.90;;;;;;5090285;28;20119;-54
2023/10/08 06:33:30;;;;;;;5.10;1.60;;;12.90;99.90;;;;;;5090137;28;20043;-56
2023/10/08 06:36:05;;;;;;;6.45;1.63;;;12.90;99.90;;;;;;5077262;28;20044;-57
2023/10/08 06:38:32;;;;;;;6.05;1.48;;;13.00;99.90;;;;;;5094296;28;20073;-56
2023/10/08 06:41:09;;;;;;;7.25;2.10;;;13.00;99.90;;;;;;5091158;28;20546;-56
2023/10/08 06:43:37;;;;;;;8.27;1.90;;;13.00;99.90;;;;;;5093000;28;20461;-56
2023/10/08 06:46:07;;;;;;;5.07;1.50;;;13.10;99.90;;;;;;5092147;28;20744;-55
2023/10/08 06:48:34;;;;;;;10.18;1.92;;;13.10;99.90;;;;;;5090277;28;20268;-57
2023/10/08 06:51:07;;;;;;;6.65;1.80;;;13.10;99.90;;;;;;5066860;28;20091;-55
2023/10/08 06:53:38;;;;;;;11.70;2.05;;;13.10;99.90;;;;;;5080332;28;20560;-56
2023/10/08 06:56:04;;;;;;;5.85;1.83;;;13.10;99.90;;;;;;5094413;28;20065;-56
2023/10/08 06:58:34;;;;;;;8.65;1.42;;;13.20;99.90;;;;;;5093197;28;20493;-56
2023/10/08 07:01:04;;;;;;;5.68;1.80;;;13.10;99.90;;;;;;5090254;28;20100;-57
2023/10/08 07:03:31;;;;;;;10.32;2.00;;;13.20;99.90;;;;;;5090406;28;20048;-55
2023/10/08 07:05:58;;;;;;;7.47;1.58;;;13.20;99.90;;;;;;5094332;28;20120;-53
2023/10/08 07:08:26;;;;;;;8.90;1.92;;;13.20;99.90;;;;;;5099209;28;20488;-57
2023/10/08 07:10:53;;;;;;;6.15;1.40;;;13.30;99.90;;;;;;5096148;28;20041;-56
2023/10/08 07:13:22;;;;;;;8.70;1.67;;;13.30;99.90;;;;;;5096012;28;20058;-57
2023/10/08 07:15:50;;;;;;;5.80;1.60;;;13.40;99.90;;;;;;5097436;28;20040;-55
2023/10/08 07:18:24;;;;;;;6.68;1.88;;;13.40;99.90;;;;;;5094303;28;20569;-55
2023/10/08 07:20:53;;;;;;;9.57;1.80;;;13.50;99.90;;;;;;5096414;28;20048;-57
2023/10/08 07:23:29;;;;;;;9.32;1.80;;;13.50;99.90;;;;;;5094630;28;20039;-56
2023/10/08 07:26:10;;;;;;;12.45;1.90;;;13.50;99.90;;;;;;5075884;28;20051;-57
2023/10/08 07:28:42;;;;;;;5.28;1.58;;;13.60;99.90;;;;;;5090286;28;20039;-55
2023/10/08 07:31:20;;;;;;;7.60;1.65;;;13.60;99.90;;;;;;5095449;28;20043;-57
2023/10/08 07:33:55;;;;;;;9.60;2.00;;;13.60;99.90;;;;;;5088983;28;20166;-56
2023/10/08 07:36:26;;;;;;;7.70;1.40;;;13.60;99.90;;;;;;5071557;28;20070;-55
2023/10/08 07:38:53;;;;;;;6.55;1.58;;;13.60;99.90;;;;;;5073854;28;20043;-56
2023/10/08 07:41:20;;;;;;;5.50;1.45;;;13.60;99.90;;;;;;5076665;28;20739;-56
2023/10/08 07:43:56;;;;;;;5.80;1.45;;;13.60;99.90;;;;;;5093107;28;20031;-55
2023/10/08 07:46:22;;;;;;;8.00;1.80;;;13.60;99.90;;;;;;5091072;28;20824;-57
2023/10/08 07:48:50;;;;;;;7.95;1.60;;;13.60;99.90;;;;;;5089741;28;20031;-56
2023/10/08 07:51:21;;;;;;;5.78;1.27;;;13.60;99.90;;;;;;5089474;28;20066;-56
2023/10/08 07:53:48;;;;;;;6.23;1.73;;;13.70;99.90;;;;;;5087084;28;20039;-56
2023/10/08 07:56:14;;;;;;;7.15;1.60;;;13.70;99.90;;;;;;5063370;28;20293;-56
2023/10/08 07:58:40;;;;;;;6.32;1.33;;;13.70;99.90;;;;;;5081373;28;20035;-56
2023/10/08 08:01:09;;;;;;;7.18;2.17;;;13.80;99.90;;;;;;5057878;28;20042;-57
2023/10/08 08:03:36;;;;;;;9.07;1.80;;;13.80;99.90;;;;;;5081665;28;20664;-56
2023/10/08 08:06:06;;;;;;;10.57;1.70;;;13.80;99.90;;;;;;5083331;28;20370;-56
2023/10/08 08:08:41;;;;;;;10.35;1.75;;;13.90;99.90;;;;;;5070473;28;20044;-53
2023/10/08 08:11:11;;;;;;;7.40;1.90;;;14.00;99.90;;;;;;5095652;28;20118;-57
2023/10/08 08:13:43;;;;;;;9.32;1.75;;;14.00;99.90;;;;;;5093602;28;20032;-55
2023/10/08 08:16:16;;;;;;;7.82;1.48;;;14.10;99.90;;;;;;5092717;28;20036;-57
2023/10/08 08:18:57;;;;;;;11.57;1.73;;;14.00;99.90;;;;;;5092446;28;20375;-55
2023/10/08 08:21:23;;;;;;;5.18;1.55;;;14.10;99.90;;;;;;5094164;28;20554;-56
2023/10/08 08:23:49;;;;;;;7.10;1.45;;;14.20;99.90;;;;;;5096777;28;20032;-56
2023/10/08 08:26:29;;;;;;;9.57;2.00;;;14.20;99.90;;;;;;5076013;28;20043;-55
2023/10/08 08:29:00;;;;;;;7.50;1.70;;;14.30;99.90;;;;;;5069098;28;20102;-57
2023/10/08 08:31:26;;;;;;;9.13;1.60;;;14.40;99.90;;;;;;5061705;28;20048;-56
2023/10/08 08:33:53;;;;;;;5.00;1.20;;;14.40;99.90;;;;;;5037357;28;20071;-56
2023/10/08 08:36:23;;;;;;;10.65;2.28;;;14.40;99.90;;;;;;5063965;28;20054;-56
2023/10/08 08:38:49;;;;;;;5.35;1.23;;;14.50;99.90;;;;;;5059306;28;20041;-57
2023/10/08 08:41:19;;;;;;;6.50;1.50;;;14.50;99.90;;;;;;5063540;28;20594;-56
2023/10/08 08:43:48;;;;;;;12.23;1.70;;;14.50;99.90;;;;;;5063923;28;20469;-55
2023/10/08 08:46:15;;;;;;;7.20;1.35;;;14.60;99.90;;;;;;5063685;28;20044;-57
2023/10/08 08:48:44;;;;;;;7.72;1.67;;;14.60;99.90;;;;;;5064204;28;20050;-57
2023/10/08 08:51:10;;;;;;;11.63;2.13;;;14.60;99.90;;;;;;5067483;28;20040;-56
2023/10/08 08:53:37;;;;;;;8.77;1.70;;;14.70;99.90;;;;;;5045941;28;20051;-54
2023/10/08 08:56:06;;;;;;;11.90;1.77;;;14.70;99.90;;;;;;5060871;28;20064;-55
2023/10/08 08:58:33;;;;;;;7.00;1.63;;;14.80;99.90;;;;;;5065869;28;20538;-55
2023/10/08 09:01:00;;;;;;;8.90;1.42;;;14.80;99.90;;;;;;5064542;28;20410;-57
2023/10/08 09:03:30;;;;;;;9.27;2.10;;;14.90;99.90;;;;;;5063469;28;20051;-56
2023/10/08 09:05:59;;;;;;;8.75;1.70;;;14.90;99.90;;;;;;5062932;28;20444;-55
2023/10/08 09:08:33;;;;;;;9.13;1.60;;;14.90;99.90;;;;;;5075045;28;20495;-57
2023/10/08 09:11:00;;;;;;;6.47;1.42;;;14.90;99.90;;;;;;5068872;28;20039;-57
2023/10/08 09:13:28;;;;;;;9.35;1.83;;;14.90;99.90;;;;;;5066677;28;24666;-56
2023/10/08 09:16:17;;;;;;;9.52;1.67;;;15.00;99.90;;;;;;5060856;28;20048;-58
2023/10/08 09:18:48;;;;;;;6.70;1.48;;;15.00;99.90;;;;;;5067129;28;20048;-55
2023/10/08 09:21:18;;;;;;;8.45;1.73;;;15.10;99.90;;;;;;5010904;28;20077;-56
2023/10/08 09:23:50;;;;;;;8.32;1.88;;;15.20;99.90;;;;;;5030105;28;20041;-56
2023/10/08 09:26:23;;;;;;;8.45;1.50;;;15.20;99.90;;;;;;5051302;28;20134;-56
2023/10/08 09:28:49;;;;;;;7.63;1.75;;;15.20;99.90;;;;;;5054777;28;20059;-56
2023/10/08 09:31:17;;;;;;;7.60;1.67;;;15.30;99.90;;;;;;5047443;28;20478;-57
2023/10/08 09:33:52;;;;;;;11.02;1.42;;;15.40;99.90;;;;;;5045398;28;20050;-58
2023/10/08 09:36:19;;;;;;;11.70;1.60;;;15.50;99.90;;;;;;5045338;28;20155;-61
2023/10/08 09:38:49;;;;;;;12.82;2.05;;;15.60;99.90;;;;;;5050420;28;20037;-60
2023/10/08 09:41:16;;;;;;;5.97;1.42;;;15.60;99.90;;;;;;5054805;28;20119;-61
2023/10/08 09:43:42;;;;;;;6.75;1.50;;;15.70;99.90;;;;;;5052482;28;20554;-62
2023/10/08 09:46:26;;;;;;;9.43;1.60;;;15.70;99.90;;;;;;5053030;28;20052;-62
2023/10/08 09:48:53;;;;;;;8.05;2.08;;;15.70;99.90;;;;;;5026628;28;20047;-61
2023/10/08 09:51:19;;;;;;;6.50;1.40;;;15.80;99.90;;;;;;5021784;28;20130;-61
2023/10/08 09:53:58;;;;;;;9.73;1.80;;;15.80;99.90;;;;;;5053767;28;20040;-62
2023/10/08 09:56:28;;;;;;;6.88;1.70;;;15.80;99.90;;;;;;5048882;28;20098;-62
2023/10/08 09:58:54;;;;;;;5.63;1.80;;;15.90;99.90;;;;;;5034190;28;20135;-60
2023/10/08 10:01:22;;;;;;;9.23;1.75;;;16.00;99.90;;;;;;5051639;28;20495;-62
2023/10/08 10:03:49;;;;;;;11.05;1.90;;;16.10;99.90;;;;;;5050188;28;20037;-61
2023/10/08 10:06:17;;;;;;;7.05;1.75;;;16.10;99.90;;;;;;5038273;28;20407;-60
2023/10/08 10:08:44;;;;;;;8.80;1.50;;;16.10;99.90;;;;;;5058579;28;20041;-62
2023/10/08 10:11:10;;;;;;;7.38;1.50;;;16.30;99.90;;;;;;5052621;28;20563;-62
2023/10/08 10:13:52;;;;;;;5.80;1.58;;;16.40;99.90;;;;;;5043740;28;20612;-61
2023/10/08 10:16:21;;;;;;;9.32;1.67;;;16.40;99.90;;;;;;5039328;28;20602;-60
2023/10/08 10:18:49;;;;;;;3.78;1.17;;;16.40;99.90;;;;;;5047288;28;20059;-61
2023/10/08 10:21:15;;;;;;;6.95;1.63;;;16.40;99.90;;;;;;5053486;28;20032;-63
2023/10/08 10:23:45;;;;;;;10.13;1.67;;;16.50;99.90;;;;;;5041941;28;20055;-60
2023/10/08 10:26:30;;;;;;;8.00;1.83;;;16.70;99.90;;;;;;5014955;28;20056;-62
2023/10/08 10:29:10;;;;;;;6.95;1.80;;;16.90;99.90;;;;;;4995320;28;20041;-62
2023/10/08 10:31:38;;;;;;;7.10;1.23;;;17.20;99.90;;;;;;5025794;28;20115;-62
2023/10/08 10:34:12;;;;;;;9.00;1.70;;;17.30;99.90;;;;;;5017809;28;20661;-61
2023/10/08 10:36:39;;;;;;;5.97;1.50;;;17.30;99.90;;;;;;5029493;28;20927;-59
2023/10/08 10:39:28;;;;;;;7.95;1.33;;;17.30;99.90;;;;;;5035684;28;20715;-64
2023/10/08 10:41:57;;;;;;;6.85;1.70;;;17.30;99.90;;;;;;5018364;28;20136;-64
2023/10/08 10:44:26;;;;;;;11.27;2.08;;;17.30;99.90;;;;;;5000852;28;20379;-64
2023/10/08 10:47:22;;;;;;;6.95;1.45;;;17.20;99.90;;;;;;5019811;28;20071;-64
2023/10/08 10:52:32;;;;;;;7.28;1.40;;;17.30;99.90;;;;;;5011238;28;20041;-64
2023/10/08 10:55:58;;;;;;;8.93;1.77;;;17.40;99.90;;;;;;5020680;28;20049;-64
2023/10/08 10:57:56;;;;;;;4.93;1.23;;;17.30;99.90;;;;;;5022050;28;20049;-64
2023/10/08 11:01:23;;;;;;;4.07;1.30;;;17.30;99.90;;;;;;5028318;28;20171;-64
2023/10/08 11:03:16;;;;;;;10.68;1.75;;;17.30;99.90;;;;;;5019451;28;20500;-64
2023/10/08 11:05:48;;;;;;;8.18;1.58;;;17.30;99.90;;;;;;5025020;28;20134;-64
2023/10/08 11:08:18;;;;;;;8.38;1.85;;;17.20;99.90;;;;;;5022045;28;20183;-63
2023/10/08 11:10:49;;;;;;;7.38;1.88;;;17.20;99.90;;;;;;5005017;28;20107;-64
2023/10/08 11:13:15;;;;;;;7.55;1.88;;;17.20;99.90;;;;;;5008788;28;20083;-64
2023/10/08 11:15:42;;;;;;;5.72;1.38;;;17.30;99.90;;;;;;5025354;28;20041;-64
2023/10/08 11:18:10;;;;;;;4.18;1.58;;;17.30;99.90;;;;;;5041296;28;20040;-64
2023/10/08 11:20:40;;;;;;;8.85;1.58;;;17.30;99.90;;;;;;5027213;28;20666;-64
2023/10/08 11:23:18;;;;;;;8.43;1.50;;;17.30;99.90;;;;;;5004465;28;20479;-64
2023/10/08 11:26:02;;;;;;;5.95;1.50;;;17.40;99.90;;;;;;5055206;28;20182;-64
2023/10/08 11:28:47;;;;;;;6.60;1.35;;;17.40;99.90;;;;;;5052554;28;20040;-64
2023/10/08 11:31:15;;;;;;;7.18;1.35;;;17.40;99.90;;;;;;5042446;28;20124;-64
2023/10/08 11:33:48;;;;;;;7.20;1.52;;;17.50;99.90;;;;;;5024039;28;20514;-64
2023/10/08 11:36:22;;;;;;;8.70;1.90;;;17.50;99.90;;;;;;5056485;28;20093;-64
2023/10/08 11:38:48;;;;;;;6.95;1.90;;;17.50;99.90;;;;;;5043383;28;20083;-63
2023/10/08 11:41:21;;;;;;;8.50;1.60;;;17.50;99.90;;;;;;5031154;28;20056;-64
2023/10/08 11:43:56;;;;;;;11.57;1.90;;;17.50;99.90;;;;;;5052938;28;20103;-64
2023/10/08 11:46:40;;;;;;;7.40;1.38;;;17.60;99.90;;;;;;5033311;28;20487;-64
2023/10/08 11:49:07;;;;;;;5.97;1.83;;;17.80;99.90;;;;;;5034771;28;20565;-64
2023/10/08 11:51:36;;;;;;;8.38;2.10;;;17.70;99.90;;;;;;5049493;28;20498;-65
2023/10/08 11:54:02;;;;;;;7.55;1.55;;;17.70;99.90;;;;;;5048605;28;20028;-64
2023/10/08 11:56:33;;;;;;;7.88;1.73;;;17.80;99.90;;;;;;5045925;28;20044;-64
2023/10/08 11:59:05;;;;;;;9.07;1.42;;;17.80;99.90;;;;;;5048971;28;20051;-64
2023/10/08 12:01:35;;;;;;;12.15;1.85;;;17.90;99.90;;;;;;5033811;28;20043;-63
2023/10/08 12:04:01;;;;;;;7.60;1.60;;;18.00;99.90;;;;;;5050778;28;20500;-63
2023/10/08 12:06:30;;;;;;;4.35;1.55;;;18.00;99.90;;;;;;5051615;28;20043;-64
2023/10/08 12:08:58;;;;;;;6.32;1.50;;;18.00;99.90;;;;;;5048861;28;20032;-63
2023/10/08 12:11:31;;;;;;;7.22;1.60;;;18.10;99.90;;;;;;5039588;28;20048;-64
2023/10/08 12:14:00;;;;;;;4.80;1.45;;;18.20;99.90;;;;;;5057166;28;20044;-64
2023/10/08 12:16:29;;;;;;;8.55;1.70;;;18.20;99.90;;;;;;5031537;28;20035;-64
2023/10/08 12:18:59;;;;;;;13.05;2.53;;;18.20;99.90;;;;;;5029639;28;20040;-64
2023/10/08 12:21:31;;;;;;;11.32;1.98;;;18.20;99.90;;;;;;5028738;28;20051;-64
2023/10/08 12:23:58;;;;;;;7.20;1.80;;;18.30;99.90;;;;;;5027191;28;20494;-64
2023/10/08 12:26:25;;;;;;;8.40;1.73;;;18.30;99.90;;;;;;5041522;28;20060;-64
2023/10/08 12:28:53;;;;;;;8.02;1.42;;;18.40;99.90;;;;;;5040086;28;20510;-64
2023/10/08 12:31:23;;;;;;;5.15;1.65;;;18.60;99.70;;;;;;5024249;28;20631;-63
2023/10/08 12:33:53;;;;;;;4.28;1.35;;;18.70;99.40;;;;;;5045983;28;20051;-64
2023/10/08 12:36:23;;;;;;;8.05;1.40;;;18.90;98.90;;;;;;5043019;28;20048;-64
2023/10/08 12:38:49;;;;;;;5.95;1.52;;;19.20;98.60;;;;;;5036322;28;20044;-63
2023/10/08 12:41:18;;;;;;;8.00;2.00;;;19.40;98.40;;;;;;5046542;28;20670;-64
2023/10/08 12:43:45;;;;;;;6.78;1.50;;;19.60;98.10;;;;;;5025823;28;20040;-63
2023/10/08 12:46:23;;;;;;;7.00;1.40;;;19.80;97.60;;;;;;5046122;28;20522;-64
2023/10/08 12:48:54;;;;;;;7.55;2.35;;;20.00;97.00;;;;;;5048476;28;20141;-64
2023/10/08 12:51:25;;;;;;;6.75;1.50;;;20.10;96.80;;;;;;5048850;28;20042;-64
2023/10/08 12:53:59;;;;;;;5.53;1.60;;;20.20;96.40;;;;;;5042712;28;20048;-64
2023/10/08 12:56:35;;;;;;;7.05;1.50;;;20.40;96.10;;;;;;5039792;28;22585;-64
2023/10/08 12:59:06;;;;;;;7.50;1.45;;;20.40;95.40;;;;;;5026027;28;20063;-64
2023/10/08 13:01:32;;;;;;;11.40;1.63;;;20.40;95.50;;;;;;5038764;28;20036;-64
2023/10/08 13:04:00;;;;;;;6.47;1.35;;;20.30;95.10;;;;;;5040517;28;20041;-65
2023/10/08 13:06:31;;;;;;;6.78;1.70;;;20.20;94.20;;;;;;5044466;28;20049;-64
2023/10/08 13:08:57;;;;;;;7.05;1.42;;;20.00;94.30;;;;;;5025757;28;20032;-64
2023/10/08 13:11:25;;;;;;;5.88;1.63;;;19.90;94.40;;;;;;5044563;28;20068;-64
2023/10/08 13:13:57;;;;;;;5.53;1.42;;;19.80;95.00;;;;;;5033850;28;20032;-64
2023/10/08 13:16:25;;;;;;;5.78;1.52;;;19.90;95.20;;;;;;5031469;28;20180;-64
2023/10/08 13:18:52;;;;;;;4.03;1.17;;;19.80;95.50;;;;;;5047995;28;20045;-64
2023/10/08 13:21:24;;;;;;;6.32;1.50;;;19.80;95.30;;;;;;5047099;28;20109;-64
2023/10/08 13:23:51;;;;;;;6.20;1.75;;;19.80;95.30;;;;;;5055268;28;20064;-64
2023/10/08 13:26:17;;;;;;;5.28;1.45;;;19.80;95.40;;;;;;5062253;28;20521;-64
2023/10/08 13:28:44;;;;;;;5.75;1.33;;;19.80;95.40;;;;;;5028261;28;20040;-63
2023/10/08 13:31:10;;;;;;;6.10;1.40;;;19.90;95.50;;;;;;5013488;28;20403;-64
2023/10/08 13:33:39;;;;;;;7.90;1.70;;;20.00;95.50;;;;;;5013766;28;20033;-64
2023/10/08 13:36:13;;;;;;;3.97;1.63;;;20.10;95.40;;;;;;5037486;28;20345;-64
2023/10/08 13:38:43;;;;;;;5.43;1.30;;;20.20;95.20;;;;;;5028881;28;20047;-64
2023/10/08 13:41:15;;;;;;;8.50;1.55;;;20.20;94.40;;;;;;5046065;28;20408;-64
2023/10/08 13:43:45;;;;;;;7.80;1.45;;;20.20;94.30;;;;;;5045267;28;20044;-64
2023/10/08 13:46:16;;;;;;;4.43;1.40;;;20.20;94.40;;;;;;5062134;28;20047;-65
2023/10/08 13:48:47;;;;;;;6.72;1.40;;;20.10;94.40;;;;;;5033263;28;20040;-64
2023/10/08 13:51:23;;;;;;;7.88;1.83;;;20.00;94.40;;;;;;5047110;28;20042;-63
2023/10/08 13:53:59;;;;;;;5.53;1.40;;;19.80;94.30;;;;;;5048047;28;20125;-64
2023/10/08 13:56:26;;;;;;;6.30;1.50;;;19.70;94.00;;;;;;5037522;28;20059;-64
2023/10/08 13:59:03;;;;;;;5.70;1.77;;;19.50;94.40;;;;;;5034675;28;20078;-64
2023/10/08 14:01:33;;;;;;;8.55;1.80;;;19.40;94.90;;;;;;5049347;28;20044;-63
2023/10/08 14:04:05;;;;;;;7.50;1.40;;;19.30;95.10;;;;;;5037031;28;20165;-64
2023/10/08 14:06:32;;;;;;;9.00;2.10;;;19.20;95.20;;;;;;5062765;28;20097;-59
2023/10/08 14:09:00;;;;;;;6.28;1.63;;;19.10;95.00;;;;;;5042057;28;20375;-61
2023/10/08 14:11:30;;;;;;;7.18;1.42;;;19.00;95.20;;;;;;5059463;28;20045;-61
2023/10/08 14:13:58;;;;;;;9.65;1.60;;;18.90;95.40;;;;;;5060579;28;20052;-60
2023/10/08 14:16:28;;;;;;;6.57;1.58;;;18.90;95.60;;;;;;5029481;28;20079;-61